map of FOG home
Great Circle Mapper logo
FOG - Airport
Location
City:  Foggia, Apulia, Italy
Name:Gino Lisa
ICAO / IATA:LIBF / FOG

Details
Type:Airport (Aerodrome, Airfield)
Use:Public/Civil
Latitude:4125'59"N (41.432917)
Longitude:1532'06"E (15.535028)
Datum:WGS 1984
Elevation:266 ft (81 m)
Runways:1
Longest:4724 × 148 ft (1440 × 45 m), paved

Time
Time Zone:UTC+1 (DST+2)
Local Time:

Weather
METAR:LIBF 301450Z 31008KT 9999 FEW020 14/11 Q1021
TAF:LIBF 301100Z 3012/3112 35012KT 9999 SCT025
TEMPO 3012/3018 SHRA

Related Locations
Nearby:
Farthest:CHT: 11808 mi / 19003 km
Waitangi [Tuuta], Chatham Islands, NZ

Find:

   beyond  
but within

Other Information
Maps:
NOTAMs:
Links:
Sources:

  
flag of Italy
flag of Apulia
  

Sectional Chart

Flight Planning
at skyvector.com

Satellite Image

Google Maps Satellite View

 

Copyright © 2004-2014 Karl L. Swartz. All rights reserved.
The Great Circle Mapper name and logo are trademarks of the Great Circle Mapper.
All other trademarks mentioned herein belong to their respective owners.
Please see credits for attibutions and further copyright information.

  Follow gcmap on Facebook Follow gcmap on Twitter

hCard Microformat

Geo Microformat